Time;durP1;ratioP1;P1;durP2;ratioP2;P2;SDS_P1;SDS_P2;PMS_P1;PMS_P2;Temp;Humidity;BMP_temperature;BMP_pressure;BME280_temperature;BME280_humidity;BME280_pressure;Samples;Min_cycle;Max_cycle;Signal;HPM_P1;HPM_P2
2021/09/14 00:01:20;102303.00;0.34;177.55;35406.00;0.12;61.94;;;;;22.90;1.00;;;;;;2552254;56;1047;-88
2021/09/14 00:03:47;0.00;0.00;0.62;0.00;0.00;0.62;;;;;22.80;1.00;;;;;;2548402;56;936;-87
2021/09/14 00:06:15;35866.00;0.12;62.74;0.00;0.00;0.62;;;;;22.60;1.00;;;;;;2552717;56;1413;-88
2021/09/14 00:08:42;0.00;0.00;0.62;0.00;0.00;0.62;;;;;22.50;1.00;;;;;;2551878;56;1905;-88
2021/09/14 00:11:09;15099.00;0.05;26.78;0.00;0.00;0.62;;;;;22.50;1.00;;;;;;2568100;56;1062;-88
2021/09/14 00:13:36;64437.00;0.21;112.15;0.00;0.00;0.62;;;;;22.20;1.00;;;;;;2567366;56;1041;-88
2021/09/14 00:16:03;0.00;0.00;0.62;0.00;0.00;0.62;;;;;21.80;1.00;;;;;;2565544;56;1373;-87
2021/09/14 00:18:30;0.00;0.00;0.62;0.00;0.00;0.62;;;;;21.20;2.00;;;;;;2569134;55;969;-87
2021/09/14 00:20:57;56340.00;0.19;98.15;0.00;0.00;0.62;;;;;20.90;3.00;;;;;;2576671;55;1083;-88
2021/09/14 00:23:25;138036.00;0.46;239.19;21855.00;0.07;38.48;;;;;20.80;4.50;;;;;;2576595;55;1054;-88
2021/09/14 00:25:52;3119.00;0.01;6.03;0.00;0.00;0.62;;;;;20.60;4.50;;;;;;2578369;55;1345;-87
2021/09/14 00:28:19;0.00;0.00;0.62;0.00;0.00;0.62;;;;;20.50;5.10;;;;;;2576127;55;1945;-87
2021/09/14 00:30:46;0.00;0.00;0.62;0.00;0.00;0.62;;;;;20.60;5.10;;;;;;2576217;55;958;-87
2021/09/14 00:33:15;0.00;0.00;0.62;0.00;0.00;0.62;;;;;20.70;4.70;;;;;;2575599;55;1110;-89
2021/09/14 00:35:42;0.00;0.00;0.62;0.00;0.00;0.62;;;;;20.80;4.10;;;;;;2578854;55;1418;-88
2021/09/14 00:38:09;157765.00;0.53;273.19;0.00;0.00;0.62;;;;;21.00;4.30;;;;;;2579425;55;1069;-88
2021/09/14 00:40:37;90071.00;0.30;156.43;0.00;0.00;0.62;;;;;21.00;3.70;;;;;;2580932;55;1571;-88
2021/09/14 00:43:04;0.00;0.00;0.62;0.00;0.00;0.62;;;;;21.40;3.60;;;;;;2583928;55;931;-88
2021/09/14 00:45:31;1812.00;0.01;3.76;0.00;0.00;0.62;;;;;21.70;2.10;;;;;;2583542;55;1519;-88
2021/09/14 00:47:58;5548.00;0.02;10.24;0.00;0.00;0.62;;;;;21.70;1.50;;;;;;2583582;55;1965;-88
2021/09/14 00:50:26;0.00;0.00;0.62;0.00;0.00;0.62;;;;;21.50;1.90;;;;;;2583970;55;1526;-88
2021/09/14 00:52:53;0.00;0.00;0.62;0.00;0.00;0.62;;;;;21.70;1.70;;;;;;2583915;55;973;-88
2021/09/14 00:55:21;0.00;0.00;0.62;0.00;0.00;0.62;;;;;22.00;1.50;;;;;;2583434;55;1688;-89
2021/09/14 00:57:50;0.00;0.00;0.62;0.00;0.00;0.62;;;;;22.00;1.00;;;;;;2581828;55;1092;-88
2021/09/14 01:00:17;19599.00;0.07;34.58;0.00;0.00;0.62;;;;;22.00;1.00;;;;;;2583949;55;1694;-88
2021/09/14 01:02:44;7529.00;0.03;13.67;0.00;0.00;0.62;;;;;21.80;1.00;;;;;;2583851;55;1018;-88
2021/09/14 01:05:12;0.00;0.00;0.62;0.00;0.00;0.62;;;;;21.70;1.20;;;;;;2584000;55;1335;-88
2021/09/14 01:07:39;0.00;0.00;0.62;0.00;0.00;0.62;;;;;21.50;1.10;;;;;;2583660;55;1096;-88
2021/09/14 01:10:07;15348.00;0.05;27.21;0.00;0.00;0.62;;;;;21.60;1.90;;;;;;2580418;55;1978;-88
2021/09/14 01:12:35;0.00;0.00;0.62;0.00;0.00;0.62;;;;;21.80;1.90;;;;;;2583951;55;1042;-88
2021/09/14 01:15:03;0.00;0.00;0.62;0.00;0.00;0.62;;;;;22.00;1.60;;;;;;2583819;55;1592;-88
2021/09/14 01:17:30;338031.00;1.13;583.29;83314.00;0.28;144.76;;;;;22.00;1.40;;;;;;2580860;55;1162;-87
2021/09/14 01:19:57;0.00;0.00;0.62;0.00;0.00;0.62;;;;;22.20;2.30;;;;;;2583843;55;945;-88
2021/09/14 01:22:28;57104.00;0.19;99.47;0.00;0.00;0.62;;;;;22.30;1.10;;;;;;2574822;55;1089;-87
2021/09/14 01:24:55;0.00;0.00;0.62;0.00;0.00;0.62;;;;;22.20;1.00;;;;;;2572573;56;1245;-87
2021/09/14 01:27:22;0.00;0.00;0.62;0.00;0.00;0.62;;;;;22.30;1.00;;;;;;2570926;56;1177;-87
2021/09/14 01:32:34;212005.00;0.71;366.59;76416.00;0.25;132.85;;;;;21.70;1.00;;;;;;2570338;56;921;-88
2021/09/14 01:35:07;198021.00;0.66;342.52;77016.00;0.26;133.88;;;;;21.40;1.00;;;;;;2573010;55;1306;-88
2021/09/14 01:37:35;175962.00;0.59;304.54;69717.00;0.23;121.27;;;;;21.30;1.60;;;;;;2570752;56;1110;-88
2021/09/14 01:40:02;206557.00;0.69;357.21;69221.00;0.23;120.41;;;;;21.40;2.60;;;;;;2570699;56;1077;-87
2021/09/14 01:42:29;162934.00;0.54;282.09;65961.00;0.22;114.78;;;;;21.40;2.60;;;;;;2573777;55;1015;-88
2021/09/14 01:44:56;173587.00;0.58;300.44;69302.00;0.23;120.55;;;;;21.00;1.90;;;;;;2583704;55;1410;-88
2021/09/14 01:47:23;246554.00;0.82;426.02;72109.00;0.24;125.40;;;;;21.20;2.90;;;;;;2580497;55;1047;-87
2021/09/14 01:49:50;213880.00;0.71;369.81;78865.00;0.26;137.08;;;;;21.20;2.40;;;;;;2583913;55;1897;-88
2021/09/14 01:52:17;328694.00;1.10;567.24;132203.00;0.44;229.13;;;;;21.40;1.40;;;;;;2583935;55;963;-88
2021/09/14 01:54:46;183482.00;0.61;317.49;70222.00;0.23;122.14;;;;;21.80;1.50;;;;;;2583444;55;1292;-88
2021/09/14 01:57:14;248919.00;0.83;430.09;69940.00;0.23;121.66;;;;;21.80;1.00;;;;;;2578184;55;1618;-88
2021/09/14 01:59:41;251036.00;0.84;433.73;74411.00;0.25;129.38;;;;;21.90;1.30;;;;;;2569568;55;924;-87
2021/09/14 02:02:13;251967.00;0.84;435.33;79072.00;0.26;137.43;;;;;21.80;1.00;;;;;;2575329;55;1120;-86
2021/09/14 02:04:47;183849.00;0.61;318.12;77416.00;0.26;134.57;;;;;21.90;1.30;;;;;;2578226;55;1352;-88
2021/09/14 02:24:00;0.00;0.00;0.62;0.00;0.00;0.62;;;;;21.40;1.60;;;;;;2583649;55;610;-88
2021/09/14 02:40:22;35996.00;0.12;62.96;0.00;0.00;0.62;;;;;21.90;1.20;;;;;;2583546;55;657;-87
2021/09/14 02:58:37;0.00;0.00;0.62;0.00;0.00;0.62;;;;;19.80;5.20;;;;;;2583854;55;662;-87
2021/09/14 02:59:44;14060.00;0.05;24.98;0.00;0.00;0.62;;;;;19.90;4.90;;;;;;2581500;55;928;-87
2021/09/14 03:02:11;138160.00;0.46;239.40;30421.00;0.10;53.31;;;;;19.70;5.00;;;;;;2581570;55;1119;-86
2021/09/14 03:04:39;0.00;0.00;0.62;0.00;0.00;0.62;;;;;19.80;5.30;;;;;;2581215;55;1402;-86
2021/09/14 03:07:05;289233.00;0.96;499.41;150532.00;0.50;260.72;;;;;19.70;5.90;;;;;;2581810;55;1078;-86
2021/09/14 03:09:32;102626.00;0.34;178.10;0.00;0.00;0.62;;;;;19.70;6.00;;;;;;2574863;55;2003;-87
2021/09/14 03:11:59;131716.00;0.44;228.29;0.00;0.00;0.62;;;;;19.70;5.50;;;;;;2584041;55;1082;-87
2021/09/14 03:14:26;29335.00;0.10;51.43;0.00;0.00;0.62;;;;;19.80;5.80;;;;;;2574838;55;1514;-87
2021/09/14 03:16:54;15284.00;0.05;27.10;0.00;0.00;0.62;;;;;19.80;5.80;;;;;;2584030;55;1124;-86
2021/09/14 03:19:21;109288.00;0.36;189.60;42928.00;0.14;74.95;;;;;20.00;6.70;;;;;;2584071;55;1061;-87
2021/09/14 03:21:48;76862.00;0.26;133.62;0.00;0.00;0.62;;;;;20.30;4.00;;;;;;2581746;55;1116;-87
2021/09/14 03:24:15;0.00;0.00;0.62;0.00;0.00;0.62;;;;;20.30;3.50;;;;;;2580378;55;1389;-87
2021/09/14 03:26:42;11208.00;0.04;20.04;0.00;0.00;0.62;;;;;20.20;3.70;;;;;;2580711;55;1658;-87
2021/09/14 03:29:09;0.00;0.00;0.62;0.00;0.00;0.62;;;;;20.00;3.70;;;;;;2581914;55;1961;-87
2021/09/14 03:31:36;14046.00;0.05;24.96;0.00;0.00;0.62;;;;;20.10;4.30;;;;;;2575006;55;954;-87
2021/09/14 03:34:05;0.00;0.00;0.62;0.00;0.00;0.62;;;;;20.20;4.70;;;;;;2584107;55;1292;-87
2021/09/14 03:36:32;186308.00;0.62;322.35;46982.00;0.16;81.97;;;;;20.60;4.80;;;;;;2580665;55;1528;-87
2021/09/14 03:38:58;0.00;0.00;0.62;0.00;0.00;0.62;;;;;20.90;2.70;;;;;;2581835;55;1093;-87
2021/09/14 03:41:25;30460.00;0.10;53.38;0.00;0.00;0.62;;;;;20.90;3.00;;;;;;2584130;55;921;-86
2021/09/14 03:43:52;0.00;0.00;0.62;0.00;0.00;0.62;;;;;20.90;3.60;;;;;;2570553;55;1389;-87
2021/09/14 03:46:19;13266.00;0.04;23.61;0.00;0.00;0.62;;;;;20.70;2.80;;;;;;2581871;55;1118;-86
2021/09/14 03:48:46;14794.00;0.05;26.25;0.00;0.00;0.62;;;;;20.70;3.90;;;;;;2581801;55;1953;-88
2021/09/14 03:51:14;49939.00;0.17;87.08;0.00;0.00;0.62;;;;;20.90;2.60;;;;;;2583996;55;1073;-87
2021/09/14 03:53:42;191891.00;0.64;331.96;50422.00;0.17;87.92;;;;;21.10;3.10;;;;;;2581846;55;1097;-86
2021/09/14 03:56:09;85620.00;0.29;148.74;18698.00;0.06;33.02;;;;;21.10;2.60;;;;;;2581823;55;1307;-86
2021/09/14 03:58:36;0.00;0.00;0.62;0.00;0.00;0.62;;;;;21.00;2.00;;;;;;2581565;55;1023;-87
2021/09/14 04:01:03;0.00;0.00;0.62;0.00;0.00;0.62;;;;;20.90;2.60;;;;;;2584062;55;974;-87
2021/09/14 04:03:39;87241.00;0.29;151.54;0.00;0.00;0.62;;;;;20.80;2.80;;;;;;2581817;55;1631;-87
2021/09/14 04:08:55;49094.00;0.16;85.62;0.00;0.00;0.62;;;;;20.80;3.10;;;;;;2584106;55;1902;-87
2021/09/14 04:11:23;0.00;0.00;0.62;0.00;0.00;0.62;;;;;20.60;4.00;;;;;;2581806;55;1146;-87
2021/09/14 04:13:51;239969.00;0.80;414.70;107230.00;0.36;186.05;;;;;20.60;2.70;;;;;;2581509;55;1113;-87
2021/09/14 04:16:18;0.00;0.00;0.62;0.00;0.00;0.62;;;;;20.40;3.70;;;;;;2581741;55;1387;-86
2021/09/14 04:18:44;216665.00;0.72;374.60;83677.00;0.28;145.39;;;;;20.50;4.00;;;;;;2581472;55;1127;-87
2021/09/14 04:21:12;9915.00;0.03;17.80;0.00;0.00;0.62;;;;;20.60;3.40;;;;;;2581896;55;1081;-86
2021/09/14 04:23:39;219313.00;0.73;379.16;74750.00;0.25;129.97;;;;;20.50;4.10;;;;;;2574942;55;998;-87
2021/09/14 04:26:08;0.00;0.00;0.62;0.00;0.00;0.62;;;;;20.50;3.20;;;;;;2581855;55;1311;-87
2021/09/14 04:28:34;20557.00;0.07;36.23;0.00;0.00;0.62;;;;;20.70;3.50;;;;;;2584080;55;914;-87
2021/09/14 04:31:02;24655.00;0.08;43.33;0.00;0.00;0.62;;;;;20.90;2.80;;;;;;2581015;55;1915;-87
2021/09/14 04:33:29;198154.00;0.66;342.75;39859.00;0.13;69.64;;;;;20.90;2.20;;;;;;2584068;55;925;-87
2021/09/14 04:35:55;27168.00;0.09;47.68;0.00;0.00;0.62;;;;;20.80;1.00;;;;;;2581807;55;1342;-87
2021/09/14 04:38:22;442674.00;1.48;763.18;152781.00;0.51;264.60;;;;;20.80;2.30;;;;;;2583540;55;953;-86
2021/09/14 04:40:49;0.00;0.00;0.62;0.00;0.00;0.62;;;;;20.80;2.40;;;;;;2573059;55;1068;-87
2021/09/14 04:43:18;0.00;0.00;0.62;0.00;0.00;0.62;;;;;20.80;2.40;;;;;;2571002;56;1024;-85
2021/09/14 04:45:45;28739.00;0.10;50.40;0.00;0.00;0.62;;;;;20.80;1.00;;;;;;2570398;56;1419;-87
2021/09/14 04:48:12;0.00;0.00;0.62;0.00;0.00;0.62;;;;;20.90;2.10;;;;;;2573177;55;1013;-87
2021/09/14 04:50:39;97682.00;0.33;169.57;30693.00;0.10;53.78;;;;;21.00;1.60;;;;;;2573064;55;1936;-87
2021/09/14 04:53:06;0.00;0.00;0.62;0.00;0.00;0.62;;;;;21.00;1.10;;;;;;2573207;55;1008;-88
2021/09/14 04:55:33;182755.00;0.61;316.23;41469.00;0.14;72.43;;;;;20.80;1.00;;;;;;2573156;55;1290;-87
2021/09/14 04:58:00;0.00;0.00;0.62;0.00;0.00;0.62;;;;;21.00;2.30;;;;;;2572208;55;1106;-87
2021/09/14 05:00:28;9194.00;0.03;16.55;0.00;0.00;0.62;;;;;21.00;2.60;;;;;;2583999;55;954;-89
2021/09/14 05:02:55;31955.00;0.11;55.97;0.00;0.00;0.62;;;;;21.30;2.90;;;;;;2570607;55;1097;-88
2021/09/14 05:05:22;34627.00;0.12;60.59;0.00;0.00;0.62;;;;;21.30;1.00;;;;;;2581698;55;1404;-88
2021/09/14 05:07:50;0.00;0.00;0.62;0.00;0.00;0.62;;;;;21.20;1.00;;;;;;2570629;55;1027;-89
2021/09/14 05:10:17;10709.00;0.04;19.18;0.00;0.00;0.62;;;;;21.00;2.70;;;;;;2581796;55;1898;-88
2021/09/14 05:12:43;101882.00;0.34;176.82;23809.00;0.08;41.87;;;;;21.20;2.20;;;;;;2583949;55;1652;-87
2021/09/14 05:15:11;0.00;0.00;0.62;0.00;0.00;0.62;;;;;21.20;1.20;;;;;;2580691;55;1287;-88
2021/09/14 05:17:40;201083.00;0.67;347.79;39595.00;0.13;69.19;;;;;21.20;1.20;;;;;;2584005;55;966;-88
2021/09/14 05:20:08;111880.00;0.37;194.07;44663.00;0.15;77.96;;;;;21.10;1.00;;;;;;2574788;55;1150;-88
2021/09/14 05:22:35;0.00;0.00;0.62;0.00;0.00;0.62;;;;;20.90;1.00;;;;;;2567884;56;1004;-88
2021/09/14 05:25:04;31198.00;0.10;54.66;0.00;0.00;0.62;;;;;20.80;1.50;;;;;;2567820;56;1299;-88
2021/09/14 05:27:31;22236.00;0.07;39.14;0.00;0.00;0.62;;;;;20.60;1.00;;;;;;2565766;56;1105;-88
2021/09/14 05:29:58;63758.00;0.21;110.97;0.00;0.00;0.62;;;;;20.30;1.70;;;;;;2571957;55;1944;-88
2021/09/14 05:32:26;85452.00;0.28;148.45;0.00;0.00;0.62;;;;;20.40;3.40;;;;;;2567916;56;953;-88
2021/09/14 05:34:54;51306.00;0.17;89.44;0.00;0.00;0.62;;;;;20.90;3.40;;;;;;2572050;55;1421;-87
2021/09/14 05:37:22;57852.00;0.19;100.76;0.00;0.00;0.62;;;;;21.30;2.50;;;;;;2565754;56;1085;-88
2021/09/14 05:39:49;0.00;0.00;0.62;0.00;0.00;0.62;;;;;21.70;1.00;;;;;;2567869;55;997;-89
2021/09/14 05:42:16;13398.00;0.04;23.84;0.00;0.00;0.62;;;;;22.20;1.00;;;;;;2580938;55;1013;-89
2021/09/14 05:44:43;0.00;0.00;0.62;0.00;0.00;0.62;;;;;23.00;1.00;;;;;;2580249;55;1373;-88
2021/09/14 05:47:10;183117.00;0.61;316.86;0.00;0.00;0.62;;;;;22.90;1.00;;;;;;2581751;55;1066;-88
2021/09/14 05:49:37;137444.00;0.46;238.16;0.00;0.00;0.62;;;;;23.10;1.00;;;;;;2583847;55;1906;-88
2021/09/14 05:52:06;155388.00;0.52;269.09;0.00;0.00;0.62;;;;;23.50;1.00;;;;;;2574703;55;1026;-86
2021/09/14 05:54:33;16671.00;0.06;29.50;0.00;0.00;0.62;;;;;24.00;1.00;;;;;;2583893;55;1408;-86
2021/09/14 05:56:59;82329.00;0.27;143.06;0.00;0.00;0.62;;;;;24.20;1.00;;;;;;2574588;55;985;-85
2021/09/14 05:59:26;0.00;0.00;0.62;0.00;0.00;0.62;;;;;24.10;1.00;;;;;;2581448;55;1074;-87
2021/09/14 06:01:53;152418.00;0.51;263.97;0.00;0.00;0.62;;;;;24.50;1.00;;;;;;2580659;55;975;-87
2021/09/14 06:04:20;41767.00;0.14;72.95;0.00;0.00;0.62;;;;;25.00;1.00;;;;;;2581519;55;1496;-88
2021/09/14 06:06:47;155703.00;0.52;269.64;0.00;0.00;0.62;;;;;24.50;1.00;;;;;;2583536;55;921;-87
2021/09/14 06:09:16;140299.00;0.47;243.09;0.00;0.00;0.62;;;;;24.40;1.00;;;;;;2583884;55;945;-88
2021/09/14 06:11:43;107788.00;0.36;187.01;0.00;0.00;0.62;;;;;24.30;1.00;;;;;;2580441;55;976;-88
2021/09/14 06:14:10;280723.00;0.94;484.78;0.00;0.00;0.62;;;;;24.60;1.00;;;;;;2583362;55;1744;-88
2021/09/14 06:16:37;186086.00;0.62;321.97;28589.00;0.10;50.14;;;;;25.20;1.00;;;;;;2583853;55;953;-87
2021/09/14 06:19:04;311092.00;1.04;536.99;89075.00;0.30;154.71;;;;;25.90;1.00;;;;;;2583610;55;1211;-87
2021/09/14 06:21:32;9689.00;0.03;17.41;0.00;0.00;0.62;;;;;26.20;1.00;;;;;;2581100;55;989;-86
2021/09/14 06:24:02;0.00;0.00;0.62;0.00;0.00;0.62;;;;;26.10;1.00;;;;;;2583737;55;1405;-87
2021/09/14 06:26:30;171096.00;0.57;296.15;0.00;0.00;0.62;;;;;26.50;1.00;;;;;;2583740;55;979;-86
2021/09/14 06:28:57;17674.00;0.06;31.24;0.00;0.00;0.62;;;;;26.40;1.00;;;;;;2583593;55;953;-87
2021/09/14 06:31:24;15521.00;0.05;27.51;0.00;0.00;0.62;;;;;27.00;1.00;;;;;;2583761;55;1936;-88
2021/09/14 06:36:21;12069.00;0.04;21.53;0.00;0.00;0.62;;;;;28.10;1.00;;;;;;2581512;55;599;-89
2021/09/14 06:38:48;86809.00;0.29;150.80;0.00;0.00;0.62;;;;;28.50;1.00;;;;;;2583767;55;989;-88
2021/09/14 06:41:15;327194.00;1.09;564.66;76439.00;0.25;132.89;;;;;28.50;1.00;;;;;;2583846;55;972;-88
2021/09/14 06:43:44;187147.00;0.62;323.80;0.00;0.00;0.62;;;;;28.10;1.00;;;;;;2581481;55;1016;-87
2021/09/14 06:46:11;206995.00;0.69;357.96;34177.00;0.11;59.81;;;;;28.30;1.00;;;;;;2576784;55;1641;-87
2021/09/14 06:48:38;165667.00;0.55;286.80;0.00;0.00;0.62;;;;;28.80;1.00;;;;;;2576388;55;1527;-90
2021/09/14 06:51:05;233780.00;0.78;404.05;0.00;0.00;0.62;;;;;29.20;1.00;;;;;;2578352;55;1898;-89
2021/09/14 06:53:32;307209.00;1.02;530.31;10952.00;0.04;19.60;;;;;29.20;1.00;;;;;;2576619;55;1112;-89
2021/09/14 06:55:59;181778.00;0.61;314.55;0.00;0.00;0.62;;;;;29.00;1.00;;;;;;2578784;55;1344;-89
2021/09/14 06:58:26;158403.00;0.53;274.29;0.00;0.00;0.62;;;;;28.80;1.00;;;;;;2578257;55;928;-90
2021/09/14 07:00:55;0.00;0.00;0.62;0.00;0.00;0.62;;;;;28.90;1.00;;;;;;2562658;56;902;-90
2021/09/14 07:03:22;45250.00;0.15;78.97;0.00;0.00;0.62;;;;;29.20;1.00;;;;;;2560668;56;1017;-89
2021/09/14 07:05:49;76442.00;0.25;132.89;0.00;0.00;0.62;;;;;29.40;1.00;;;;;;2562418;56;1350;-89
2021/09/14 07:08:16;367166.00;1.22;633.37;77385.00;0.26;134.52;;;;;30.10;1.00;;;;;;2562787;56;993;-89
2021/09/14 07:10:43;184448.00;0.61;319.15;0.00;0.00;0.62;;;;;29.80;1.00;;;;;;2562737;56;1898;-90
2021/09/14 07:13:10;204398.00;0.68;353.49;0.00;0.00;0.62;;;;;29.80;1.00;;;;;;2560275;56;1007;-90
2021/09/14 07:15:37;238791.00;0.80;412.67;0.00;0.00;0.62;;;;;29.70;1.00;;;;;;2562880;56;1364;-91
2021/09/14 07:18:06;295009.00;0.98;509.34;26185.00;0.09;45.98;;;;;29.50;1.00;;;;;;2564650;55;1035;-90
2021/09/14 07:20:33;130294.00;0.43;225.84;0.00;0.00;0.62;;;;;29.60;1.00;;;;;;2576196;55;1081;-90
2021/09/14 07:23:00;40187.00;0.13;70.21;0.00;0.00;0.62;;;;;29.20;1.00;;;;;;2578689;55;961;-89
2021/09/14 07:25:28;92033.00;0.31;159.82;0.00;0.00;0.62;;;;;29.50;1.00;;;;;;2578717;55;1494;-91
2021/09/14 07:27:55;81642.00;0.27;141.87;0.00;0.00;0.62;;;;;29.30;1.00;;;;;;2576387;55;1704;-90
2021/09/14 07:30:22;102121.00;0.34;177.23;0.00;0.00;0.62;;;;;29.30;1.00;;;;;;2578822;55;1888;-89
2021/09/14 07:32:54;337961.00;1.13;583.17;18998.00;0.06;33.53;;;;;28.90;1.00;;;;;;2562330;56;1040;-89
2021/09/14 07:35:23;58726.00;0.20;102.27;0.00;0.00;0.62;;;;;28.60;1.00;;;;;;2565627;55;1279;-90
2021/09/14 07:37:51;171.00;0.00;0.92;0.00;0.00;0.62;;;;;28.50;1.00;;;;;;2565666;56;1136;-89
2021/09/14 07:40:18;202845.00;0.68;350.82;0.00;0.00;0.62;;;;;28.40;1.00;;;;;;2567784;55;1744;-89
2021/09/14 07:42:45;607554.00;2.03;1047.27;165201.00;0.55;286.00;;;;;29.60;1.00;;;;;;2565380;56;1537;-90
2021/09/14 07:45:12;111481.00;0.37;193.39;0.00;0.00;0.62;;;;;29.40;1.00;;;;;;2565547;56;1352;-89
2021/09/14 07:47:40;384854.00;1.28;663.77;0.00;0.00;0.62;;;;;30.10;1.00;;;;;;2565736;56;1220;-91
2021/09/14 07:50:08;169121.00;0.56;292.75;0.00;0.00;0.62;;;;;30.90;1.00;;;;;;2569262;55;1910;-90
2021/09/14 07:52:36;137842.00;0.46;238.85;0.00;0.00;0.62;;;;;30.50;1.00;;;;;;2576639;55;1129;-90
2021/09/14 07:55:14;155314.00;0.52;268.97;0.00;0.00;0.62;;;;;30.50;1.00;;;;;;2576184;55;1304;-89
2021/09/14 07:57:42;127623.00;0.43;221.23;0.00;0.00;0.62;;;;;30.50;1.00;;;;;;2578708;55;1729;-89
2021/09/14 08:00:36;166159.00;0.55;287.65;18968.00;0.06;33.48;;;;;30.70;1.00;;;;;;2576359;55;1149;-90
2021/09/14 08:03:03;529642.00;1.77;912.88;132055.00;0.44;228.87;;;;;30.60;1.00;;;;;;2575549;55;976;-89
2021/09/14 08:05:31;461922.00;1.54;796.29;151198.00;0.50;261.87;;;;;30.50;1.00;;;;;;2578795;55;1327;-89
2021/09/14 09:05:02;243790.00;0.81;421.27;72257.00;0.24;125.66;;;;;29.00;1.00;;;;;;2579431;55;1282;-88
2021/09/14 09:07:34;595760.00;1.99;1026.90;16397.00;0.05;29.03;;;;;28.90;1.00;;;;;;2567725;56;905;-88
2021/09/14 09:10:12;612852.00;2.04;1056.42;64390.00;0.21;112.07;;;;;29.00;1.00;;;;;;2567819;56;1904;-89
2021/09/14 09:15:10;468600.00;1.56;807.78;52921.00;0.18;92.24;;;;;28.60;1.00;;;;;;2586068;55;1183;-88
2021/09/14 09:17:59;557747.00;1.86;961.32;59104.00;0.20;102.93;;;;;28.70;1.00;;;;;;2583004;55;934;-91
2021/09/14 09:20:28;395458.00;1.32;682.00;0.00;0.00;0.62;;;;;28.80;1.00;;;;;;2567756;56;939;-90
2021/09/14 09:28:08;72794.00;0.24;126.59;0.00;0.00;0.62;;;;;28.80;1.00;;;;;;2581627;55;543;-88
2021/09/14 09:35:44;35615.00;0.12;62.30;0.00;0.00;0.62;;;;;28.70;1.00;;;;;;2579968;55;1276;-90
2021/09/14 09:38:11;431152.00;1.44;743.37;149718.00;0.50;259.32;;;;;28.80;1.00;;;;;;2576927;55;938;-89
2021/09/14 09:40:41;157369.00;0.52;272.51;59838.00;0.20;104.20;;;;;28.80;1.00;;;;;;2567287;56;933;-89
2021/09/14 09:45:43;268493.00;0.89;463.75;0.00;0.00;0.62;;;;;29.00;1.00;;;;;;2572760;55;1394;-91
2021/09/14 09:53:20;37195.00;0.12;65.04;0.00;0.00;0.62;;;;;29.30;1.00;;;;;;2581566;55;618;-90
2021/09/14 09:55:49;220376.00;0.73;380.99;54676.00;0.18;95.27;;;;;29.10;1.00;;;;;;2583744;55;1314;-88
2021/09/14 09:58:18;256125.00;0.85;442.48;51923.00;0.17;90.51;;;;;28.70;1.00;;;;;;2583807;55;906;-90
2021/09/14 10:00:57;231127.00;0.77;399.49;0.00;0.00;0.62;;;;;29.00;1.00;;;;;;2572619;55;991;-89
2021/09/14 10:03:28;174939.00;0.58;302.77;0.00;0.00;0.62;;;;;29.10;1.00;;;;;;2562566;56;907;-90
2021/09/14 10:32:47;446831.00;1.49;770.33;83581.00;0.28;145.22;;;;;30.50;1.00;;;;;;2581585;55;963;-88
2021/09/14 10:35:27;175524.00;0.59;303.78;0.00;0.00;0.62;;;;;30.80;1.00;;;;;;2578791;55;1547;-89
2021/09/14 10:38:09;178083.00;0.59;308.19;0.00;0.00;0.62;;;;;31.10;1.00;;;;;;2576542;55;1130;-90
2021/09/14 10:40:44;0.00;0.00;0.62;0.00;0.00;0.62;;;;;31.30;1.00;;;;;;2576577;55;1044;-89
2021/09/14 10:43:23;0.00;0.00;0.62;0.00;0.00;0.62;;;;;31.10;1.00;;;;;;2576699;55;1049;-89
2021/09/14 10:45:50;30380.00;0.10;53.24;0.00;0.00;0.62;;;;;31.20;1.00;;;;;;2578860;55;1265;-89
2021/09/14 10:48:25;114369.00;0.38;198.37;0.00;0.00;0.62;;;;;31.30;1.00;;;;;;2578852;55;1733;-90
2021/09/14 10:50:53;0.00;0.00;0.62;0.00;0.00;0.62;;;;;31.60;1.00;;;;;;2578864;55;1902;-89
2021/09/14 10:53:30;60303.00;0.20;105.00;0.00;0.00;0.62;;;;;31.40;1.00;;;;;;2576566;55;1083;-89
2021/09/14 10:55:59;179331.00;0.60;310.34;0.00;0.00;0.62;;;;;31.30;1.00;;;;;;2578875;55;1419;-90
2021/09/14 10:58:28;171064.00;0.57;296.10;0.00;0.00;0.62;;;;;31.60;1.00;;;;;;2578889;55;1009;-90
2021/09/14 11:00:56;23950.00;0.08;42.11;0.00;0.00;0.62;;;;;31.30;1.00;;;;;;2578888;55;1149;-90
2021/09/14 11:03:24;0.00;0.00;0.62;0.00;0.00;0.62;;;;;31.40;1.00;;;;;;2576558;55;1099;-90
2021/09/14 11:05:53;214633.00;0.72;371.11;15605.00;0.05;27.66;;;;;31.60;1.00;;;;;;2576571;55;1354;-89
2021/09/14 11:08:25;283230.00;0.94;489.09;43665.00;0.15;76.23;;;;;31.60;1.00;;;;;;2578799;55;899;-91
2021/09/14 11:10:58;51323.00;0.17;89.47;0.00;0.00;0.62;;;;;31.60;1.00;;;;;;2576529;55;1965;-90
2021/09/14 11:13:27;203736.00;0.68;352.35;35472.00;0.12;62.05;;;;;31.90;1.00;;;;;;2575847;55;1072;-89
2021/09/14 11:16:00;188135.00;0.63;325.50;0.00;0.00;0.62;;;;;31.60;1.00;;;;;;2578777;55;1344;-89
2021/09/14 11:18:32;70240.00;0.23;122.18;0.00;0.00;0.62;;;;;31.50;1.00;;;;;;2578813;55;1266;-90
2021/09/14 11:21:05;0.00;0.00;0.62;0.00;0.00;0.62;;;;;31.60;1.00;;;;;;2578859;55;906;-90
2021/09/14 11:23:32;59697.00;0.20;103.95;0.00;0.00;0.62;;;;;31.40;1.00;;;;;;2578789;55;1694;-90
2021/09/14 11:25:59;379629.00;1.27;654.79;111131.00;0.37;192.78;;;;;31.40;1.00;;;;;;2576179;55;1281;-89
2021/09/14 11:28:26;210059.00;0.70;363.24;0.00;0.00;0.62;;;;;31.40;1.00;;;;;;2576652;55;994;-91
2021/09/14 11:30:56;170088.00;0.57;294.42;49536.00;0.17;86.38;;;;;31.50;1.00;;;;;;2578811;55;1894;-89
2021/09/14 11:33:25;159538.00;0.53;276.24;0.00;0.00;0.62;;;;;31.50;1.00;;;;;;2567788;55;929;-90
2021/09/14 11:35:55;201083.00;0.67;347.79;0.00;0.00;0.62;;;;;31.40;1.00;;;;;;2567773;55;1396;-90
2021/09/14 11:38:24;152413.00;0.51;263.97;0.00;0.00;0.62;;;;;31.10;1.00;;;;;;2568071;55;968;-91
2021/09/14 11:40:53;276817.00;0.92;478.06;40690.00;0.14;71.08;;;;;30.80;1.00;;;;;;2567935;55;1026;-89
2021/09/14 11:43:24;96702.00;0.32;167.88;0.00;0.00;0.62;;;;;31.30;1.00;;;;;;2557835;56;950;-90
2021/09/14 11:45:53;160548.00;0.54;277.98;0.00;0.00;0.62;;;;;31.70;1.00;;;;;;2554889;56;1250;-89
2021/09/14 11:48:24;146630.00;0.49;254.00;0.00;0.00;0.62;;;;;31.90;1.00;;;;;;2557726;56;956;-89
2021/09/14 11:51:04;6781.00;0.02;12.37;0.00;0.00;0.62;;;;;31.90;1.00;;;;;;2548685;56;1952;-89
2021/09/14 11:53:31;148312.00;0.49;256.90;0.00;0.00;0.62;;;;;31.70;1.00;;;;;;2542552;56;964;-89
2021/09/14 11:55:59;438253.00;1.46;755.58;0.00;0.00;0.62;;;;;31.60;1.00;;;;;;2542433;56;1372;-91
2021/09/14 11:58:31;145374.00;0.48;251.83;0.00;0.00;0.62;;;;;31.40;1.00;;;;;;2539640;56;976;-90
2021/09/14 12:01:02;339736.00;1.13;586.22;48122.00;0.16;83.94;;;;;31.30;1.00;;;;;;2547063;56;1044;-91
2021/09/14 12:03:37;29786.00;0.10;52.21;0.00;0.00;0.62;;;;;31.30;1.00;;;;;;2557785;56;1174;-89
2021/09/14 12:06:07;175039.00;0.58;302.95;0.00;0.00;0.62;;;;;31.30;1.00;;;;;;2557746;56;1363;-90
2021/09/14 12:08:36;223118.00;0.74;385.71;0.00;0.00;0.62;;;;;31.60;1.00;;;;;;2561168;56;974;-90
2021/09/14 12:11:04;296707.00;0.99;512.26;0.00;0.00;0.62;;;;;31.80;1.00;;;;;;2570699;55;1959;-91
2021/09/14 12:13:38;232541.00;0.78;401.92;22030.00;0.07;38.79;;;;;31.90;1.00;;;;;;2576581;55;940;-90
2021/09/14 12:16:09;89364.00;0.30;155.21;0.00;0.00;0.62;;;;;32.10;1.00;;;;;;2578809;55;1399;-87
2021/09/14 12:18:37;0.00;0.00;0.62;0.00;0.00;0.62;;;;;32.30;1.00;;;;;;2578825;55;891;-87
2021/09/14 12:21:05;0.00;0.00;0.62;0.00;0.00;0.62;;;;;32.50;1.00;;;;;;2576518;55;1642;-89
2021/09/14 12:23:35;181085.00;0.60;313.36;7703.00;0.03;13.97;;;;;32.50;1.00;;;;;;2567898;56;978;-88
2021/09/14 12:33:47;52496.00;0.17;91.50;0.00;0.00;0.62;;;;;32.50;1.00;;;;;;2581954;55;607;-90
2021/09/14 12:36:16;146740.00;0.49;254.19;0.00;0.00;0.62;;;;;32.70;1.00;;;;;;2579019;55;1421;-90
2021/09/14 12:38:43;183548.00;0.61;317.60;1197.00;0.00;2.69;;;;;32.70;1.00;;;;;;2575998;55;953;-89
2021/09/14 12:41:14;117812.00;0.39;204.31;0.00;0.00;0.62;;;;;32.90;1.00;;;;;;2578805;55;986;-90
2021/09/14 12:43:41;0.00;0.00;0.62;0.00;0.00;0.62;;;;;33.00;1.00;;;;;;2578708;55;984;-89
2021/09/14 12:46:08;42745.00;0.14;74.64;0.00;0.00;0.62;;;;;33.10;1.00;;;;;;2578484;55;1376;-89
2021/09/14 12:48:35;188913.00;0.63;326.84;24367.00;0.08;42.83;;;;;33.30;1.00;;;;;;2562798;56;919;-90
2021/09/14 12:51:04;177266.00;0.59;306.78;33508.00;0.11;58.65;;;;;33.10;1.00;;;;;;2557459;56;1953;-89
2021/09/14 12:53:33;52037.00;0.17;90.71;0.00;0.00;0.62;;;;;33.20;1.00;;;;;;2552240;56;1055;-89
2021/09/14 12:56:00;163296.00;0.54;282.72;0.00;0.00;0.62;;;;;33.20;1.00;;;;;;2552524;56;1358;-88